Time;durP1;ratioP1;P1;durP2;ratioP2;P2;SDS_P1;SDS_P2;PMS_P1;PMS_P2;Temp;Humidity;BMP_temperature;BMP_pressure;BME280_temperature;BME280_humidity;BME280_pressure;Samples;Min_cycle;Max_cycle;Signal;HPM_P1;HPM_P2
2022/06/29 00:02:21;;;;;;;;;;;26.00;87.40;;;;;;5000912;28;20028;-81
2022/06/29 00:04:48;;;;;;;;;;;26.00;87.50;;;;;;5001654;28;20008;-81
2022/06/29 00:07:16;;;;;;;;;;;26.00;87.60;;;;;;5001399;28;19972;-81
2022/06/29 00:09:42;;;;;;;;;;;26.00;87.60;;;;;;5000976;28;19912;-85
2022/06/29 00:12:09;;;;;;;;;;;26.00;87.70;;;;;;4995976;28;19922;-85
2022/06/29 00:14:41;;;;;;;;;;;26.00;87.70;;;;;;4995646;28;20292;-86
2022/06/29 00:17:08;;;;;;;;;;;26.00;87.80;;;;;;4995382;28;20025;-86
2022/06/29 00:19:35;;;;;;;;;;;26.00;87.80;;;;;;4995418;28;19921;-86
2022/06/29 00:22:01;;;;;;;;;;;26.00;87.90;;;;;;4995289;28;20370;-86
2022/06/29 00:24:30;;;;;;;;;;;26.00;88.00;;;;;;4995758;28;19921;-86
2022/06/29 00:26:56;;;;;;;;;;;26.00;88.10;;;;;;4995870;28;19929;-86
2022/06/29 00:29:23;;;;;;;;;;;26.00;88.20;;;;;;4995479;28;19922;-86
2022/06/29 00:31:49;;;;;;;;;;;26.00;88.20;;;;;;4995664;28;19922;-86
2022/06/29 00:34:16;;;;;;;;;;;26.00;88.30;;;;;;4994902;28;20004;-86
2022/06/29 00:36:43;;;;;;;;;;;26.00;88.40;;;;;;4995065;28;20012;-86
2022/06/29 00:39:09;;;;;;;;;;;26.00;88.50;;;;;;4995083;28;20424;-86
2022/06/29 00:41:39;;;;;;;;;;;26.00;88.60;;;;;;4995405;28;19972;-86
2022/06/29 00:44:07;;;;;;;;;;;26.00;88.70;;;;;;4994704;28;19921;-86
2022/06/29 00:46:34;;;;;;;;;;;26.00;88.90;;;;;;4994946;28;19961;-86
2022/06/29 00:49:01;;;;;;;;;;;26.00;89.00;;;;;;4994793;28;20012;-86
2022/06/29 00:51:28;;;;;;;;;;;26.00;89.10;;;;;;4994709;28;19921;-86
2022/06/29 00:53:55;;;;;;;;;;;26.00;89.20;;;;;;4995113;28;19926;-86
2022/06/29 00:56:22;;;;;;;;;;;26.00;89.30;;;;;;4995055;28;19928;-86
2022/06/29 00:58:54;;;;;;;;;;;26.00;89.50;;;;;;4994546;28;20395;-86
2022/06/29 01:01:20;;;;;;;;;;;26.00;89.60;;;;;;4994883;28;19972;-86
2022/06/29 01:03:47;;;;;;;;;;;26.00;89.70;;;;;;4995182;28;20008;-86
2022/06/29 01:06:14;;;;;;;;;;;26.00;89.90;;;;;;4995417;28;19969;-86
2022/06/29 01:08:41;;;;;;;;;;;26.00;90.00;;;;;;4995115;28;20288;-86
2022/06/29 01:11:07;;;;;;;;;;;26.00;90.00;;;;;;4994619;28;19922;-86
2022/06/29 01:13:34;;;;;;;;;;;26.00;90.10;;;;;;4994517;28;20012;-86
2022/06/29 01:16:02;;;;;;;;;;;26.00;90.20;;;;;;4994839;28;20390;-86
2022/06/29 01:18:29;;;;;;;;;;;26.10;90.30;;;;;;4994758;28;19928;-86
2022/06/29 01:20:55;;;;;;;;;;;26.00;90.30;;;;;;4995161;28;19922;-86
2022/06/29 01:23:23;;;;;;;;;;;26.10;90.40;;;;;;4994674;28;19922;-86
2022/06/29 01:25:51;;;;;;;;;;;26.00;90.50;;;;;;4994395;28;19944;-86
2022/06/29 01:28:17;;;;;;;;;;;26.10;90.60;;;;;;4994805;28;20390;-86
2022/06/29 01:30:44;;;;;;;;;;;26.10;90.60;;;;;;4998122;28;20300;-86
2022/06/29 01:33:11;;;;;;;;;;;26.00;90.60;;;;;;4998174;28;19921;-86
2022/06/29 01:35:38;;;;;;;;;;;26.00;90.60;;;;;;4997847;28;19968;-86
2022/06/29 01:38:05;;;;;;;;;;;26.00;90.60;;;;;;4998016;28;19925;-87
2022/06/29 01:40:33;;;;;;;;;;;26.00;90.60;;;;;;4997667;28;19928;-87
2022/06/29 01:42:59;;;;;;;;;;;26.00;90.60;;;;;;4997760;28;19928;-87
2022/06/29 01:45:26;;;;;;;;;;;26.00;90.60;;;;;;4998168;28;19964;-86
2022/06/29 01:47:53;;;;;;;;;;;26.00;90.60;;;;;;4998212;28;19944;-86
2022/06/29 01:50:19;;;;;;;;;;;26.00;90.60;;;;;;4998999;28;19965;-86
2022/06/29 01:52:46;;;;;;;;;;;26.00;90.70;;;;;;4998706;28;20016;-85
2022/06/29 01:55:13;;;;;;;;;;;26.00;90.80;;;;;;4998196;28;19922;-86
2022/06/29 01:57:41;;;;;;;;;;;26.00;90.90;;;;;;4999694;28;19956;-85
2022/06/29 02:00:08;;;;;;;;;;;26.00;90.90;;;;;;5001086;28;19921;-85
2022/06/29 02:02:35;;;;;;;;;;;26.00;91.00;;;;;;5001035;28;19965;-85
2022/06/29 02:05:02;;;;;;;;;;;26.00;91.00;;;;;;5000557;28;20347;-85
2022/06/29 02:07:28;;;;;;;;;;;26.00;91.10;;;;;;5008062;28;20024;-85
2022/06/29 02:09:55;;;;;;;;;;;26.00;91.10;;;;;;5004780;28;19988;-85
2022/06/29 02:12:22;;;;;;;;;;;26.00;91.20;;;;;;5003074;28;20016;-86
2022/06/29 02:14:50;;;;;;;;;;;26.00;91.20;;;;;;4999140;28;19922;-86
2022/06/29 02:17:17;;;;;;;;;;;26.00;91.20;;;;;;4999300;28;19961;-86
2022/06/29 02:19:43;;;;;;;;;;;26.00;91.30;;;;;;5003246;28;19926;-86
2022/06/29 02:22:10;;;;;;;;;;;26.00;91.30;;;;;;5001584;28;20012;-86
2022/06/29 02:24:36;;;;;;;;;;;26.00;91.40;;;;;;5002074;28;19969;-85
2022/06/29 02:27:03;;;;;;;;;;;26.00;91.40;;;;;;5001255;28;19989;-85
2022/06/29 02:29:30;;;;;;;;;;;26.00;91.50;;;;;;5001337;28;20000;-85
2022/06/29 02:34:46;;;;;;;;;;;26.00;91.50;;;;;;5000049;28;19959;-86
2022/06/29 02:37:13;;;;;;;;;;;26.00;91.60;;;;;;4999519;28;19922;-86
2022/06/29 02:39:42;;;;;;;;;;;26.00;91.70;;;;;;4998413;28;19922;-86
2022/06/29 02:42:09;;;;;;;;;;;26.00;91.70;;;;;;5000674;28;20039;-85
2022/06/29 02:44:36;;;;;;;;;;;26.00;91.70;;;;;;4999215;28;19960;-85
2022/06/29 02:47:04;;;;;;;;;;;26.00;91.70;;;;;;5000165;28;20010;-85
2022/06/29 02:49:31;;;;;;;;;;;26.00;91.80;;;;;;5000362;28;19928;-85
2022/06/29 02:51:58;;;;;;;;;;;26.00;91.80;;;;;;4999445;28;19925;-85
2022/06/29 02:54:24;;;;;;;;;;;26.00;91.80;;;;;;4998089;28;20349;-85
2022/06/29 02:56:51;;;;;;;;;;;26.00;91.90;;;;;;4998392;28;19957;-85
2022/06/29 02:59:18;;;;;;;;;;;26.00;91.90;;;;;;4997910;28;20362;-85
2022/06/29 03:01:45;;;;;;;;;;;26.00;91.90;;;;;;4998233;28;20396;-85
2022/06/29 03:04:13;;;;;;;;;;;26.00;92.00;;;;;;4998579;28;19922;-85
2022/06/29 03:06:40;;;;;;;;;;;26.00;92.00;;;;;;4998230;28;19965;-86
2022/06/29 03:09:06;;;;;;;;;;;26.00;92.00;;;;;;4998433;28;20296;-85
2022/06/29 03:11:33;;;;;;;;;;;26.00;92.10;;;;;;4998135;28;19922;-85
2022/06/29 03:14:00;;;;;;;;;;;26.00;92.10;;;;;;4997765;28;19928;-85
2022/06/29 03:16:27;;;;;;;;;;;26.00;92.10;;;;;;4998201;28;20433;-85
2022/06/29 03:18:53;;;;;;;;;;;26.00;92.20;;;;;;4998332;28;19922;-85
2022/06/29 03:21:21;;;;;;;;;;;26.00;92.20;;;;;;4998479;28;20013;-85
2022/06/29 03:23:48;;;;;;;;;;;26.00;92.20;;;;;;4998011;28;19944;-85
2022/06/29 03:26:15;;;;;;;;;;;26.00;92.20;;;;;;4998412;28;19964;-85
2022/06/29 03:28:41;;;;;;;;;;;26.00;92.30;;;;;;4998126;28;19928;-86
2022/06/29 03:31:08;;;;;;;;;;;26.00;92.30;;;;;;4997698;28;20000;-85
2022/06/29 03:33:34;;;;;;;;;;;26.00;92.30;;;;;;4998088;28;20008;-85
2022/06/29 03:36:01;;;;;;;;;;;26.00;92.40;;;;;;4997148;28;19968;-86
2022/06/29 03:38:29;;;;;;;;;;;26.00;92.40;;;;;;4997017;28;19922;-85
2022/06/29 03:40:56;;;;;;;;;;;25.90;92.40;;;;;;4996492;28;19928;-86
2022/06/29 03:43:22;;;;;;;;;;;26.00;92.40;;;;;;4996323;28;20348;-86
2022/06/29 03:45:49;;;;;;;;;;;26.00;92.50;;;;;;4996843;28;19969;-85
2022/06/29 03:48:16;;;;;;;;;;;26.00;92.50;;;;;;4998182;28;19994;-85
2022/06/29 03:50:43;;;;;;;;;;;26.00;92.50;;;;;;4995376;28;19928;-86
2022/06/29 03:53:09;;;;;;;;;;;25.90;92.50;;;;;;4995245;28;20382;-86
2022/06/29 03:55:37;;;;;;;;;;;26.00;92.60;;;;;;4996287;28;20371;-86
2022/06/29 03:58:04;;;;;;;;;;;26.00;92.60;;;;;;4996561;28;19921;-86
2022/06/29 04:00:31;;;;;;;;;;;26.00;92.70;;;;;;4996347;28;20020;-85
2022/06/29 04:02:57;;;;;;;;;;;26.00;92.70;;;;;;4995865;28;19922;-86
2022/06/29 04:05:24;;;;;;;;;;;26.00;92.70;;;;;;4995064;28;19921;-87
2022/06/29 04:07:51;;;;;;;;;;;25.90;92.70;;;;;;4996182;28;19928;-82
2022/06/29 04:10:17;;;;;;;;;;;26.00;92.80;;;;;;4997069;28;19961;-82
2022/06/29 04:12:45;;;;;;;;;;;26.00;92.80;;;;;;4996759;28;19921;-81
2022/06/29 04:15:12;;;;;;;;;;;26.00;92.90;;;;;;4996937;28;19922;-82
2022/06/29 04:17:39;;;;;;;;;;;26.00;92.90;;;;;;4997085;28;19928;-82
2022/06/29 04:20:06;;;;;;;;;;;26.00;93.00;;;;;;4996882;28;19929;-82
2022/06/29 04:22:33;;;;;;;;;;;26.00;93.00;;;;;;4996681;28;19969;-81
2022/06/29 04:24:59;;;;;;;;;;;26.00;93.10;;;;;;4995851;28;19944;-85
2022/06/29 04:27:26;;;;;;;;;;;26.00;93.10;;;;;;4996019;28;19932;-86
2022/06/29 04:29:54;;;;;;;;;;;26.00;93.10;;;;;;4994943;28;19922;-85
2022/06/29 04:32:21;;;;;;;;;;;26.00;93.10;;;;;;4995281;28;19926;-86
2022/06/29 04:34:48;;;;;;;;;;;26.00;93.10;;;;;;4995093;28;19922;-86
2022/06/29 04:37:14;;;;;;;;;;;26.00;93.10;;;;;;4995612;28;19928;-85
2022/06/29 04:39:41;;;;;;;;;;;26.00;93.20;;;;;;4995799;28;20016;-84
2022/06/29 04:42:08;;;;;;;;;;;26.00;93.20;;;;;;4995903;28;19922;-84
2022/06/29 04:44:34;;;;;;;;;;;26.00;93.30;;;;;;4995389;28;20460;-86
2022/06/29 04:47:02;;;;;;;;;;;26.00;93.40;;;;;;4995713;28;19921;-86
2022/06/29 04:49:29;;;;;;;;;;;26.00;93.50;;;;;;4996150;28;20000;-84
2022/06/29 04:51:56;;;;;;;;;;;26.00;93.50;;;;;;5000059;28;20000;-83
2022/06/29 04:54:23;;;;;;;;;;;26.00;93.60;;;;;;4996297;28;19965;-83
2022/06/29 04:56:49;;;;;;;;;;;26.00;93.60;;;;;;4996568;28;19928;-83
2022/06/29 04:59:16;;;;;;;;;;;26.00;93.70;;;;;;4996369;28;19926;-82
2022/06/29 05:01:43;;;;;;;;;;;26.00;93.70;;;;;;4996257;28;20389;-83
2022/06/29 05:04:11;;;;;;;;;;;26.00;93.70;;;;;;4998494;28;19922;-84
2022/06/29 05:06:38;;;;;;;;;;;26.00;93.80;;;;;;5000780;28;19928;-86
2022/06/29 05:09:04;;;;;;;;;;;26.00;93.80;;;;;;4999404;28;20012;-87
2022/06/29 05:11:31;;;;;;;;;;;26.00;93.90;;;;;;4999075;28;20282;-85
2022/06/29 05:13:58;;;;;;;;;;;26.00;94.00;;;;;;4999375;28;19944;-87
2022/06/29 05:16:25;;;;;;;;;;;26.00;94.00;;;;;;4998578;28;19922;-87
2022/06/29 05:18:51;;;;;;;;;;;26.00;94.00;;;;;;4998366;28;20289;-88
2022/06/29 05:21:20;;;;;;;;;;;26.00;94.00;;;;;;4998438;28;19922;-87
2022/06/29 05:23:47;;;;;;;;;;;26.00;94.10;;;;;;4998574;28;19929;-86
2022/06/29 05:26:14;;;;;;;;;;;26.00;94.10;;;;;;4998122;28;19928;-86
2022/06/29 05:28:40;;;;;;;;;;;26.00;94.00;;;;;;4998202;28;19975;-87
2022/06/29 05:31:07;;;;;;;;;;;26.00;93.90;;;;;;4998111;28;20357;-87
2022/06/29 05:33:37;;;;;;;;;;;26.00;93.80;;;;;;4998386;28;19943;-88
2022/06/29 05:36:04;;;;;;;;;;;26.00;93.70;;;;;;4998286;28;20321;-86
2022/06/29 05:38:33;;;;;;;;;;;25.90;93.60;;;;;;4997927;28;20020;-87
2022/06/29 05:41:00;;;;;;;;;;;25.90;93.50;;;;;;4998237;28;19921;-86
2022/06/29 05:43:27;;;;;;;;;;;25.90;93.40;;;;;;4999419;28;19928;-85
2022/06/29 05:45:54;;;;;;;;;;;25.90;93.40;;;;;;5000820;28;19928;-86
2022/06/29 05:48:20;;;;;;;;;;;25.90;93.30;;;;;;4998078;28;19929;-86
2022/06/29 05:50:47;;;;;;;;;;;25.90;93.10;;;;;;4998106;28;19926;-86
2022/06/29 05:53:16;;;;;;;;;;;25.90;93.10;;;;;;4998759;28;19928;-86
2022/06/29 05:55:44;;;;;;;;;;;25.90;93.10;;;;;;5000700;28;19981;-85
2022/06/29 05:58:18;;;;;;;;;;;25.90;93.10;;;;;;4997717;28;20329;-86
2022/06/29 06:00:44;;;;;;;;;;;25.90;93.10;;;;;;4997941;28;19921;-86
2022/06/29 06:03:11;;;;;;;;;;;25.90;93.00;;;;;;4997251;28;19995;-85
2022/06/29 06:05:38;;;;;;;;;;;25.90;93.00;;;;;;4999018;28;19922;-85
2022/06/29 06:08:05;;;;;;;;;;;25.90;93.10;;;;;;4997614;28;19923;-85
2022/06/29 06:10:31;;;;;;;;;;;25.90;93.00;;;;;;4997899;28;20040;-85
2022/06/29 06:12:59;;;;;;;;;;;25.90;92.90;;;;;;4997306;28;19965;-85
2022/06/29 06:15:26;;;;;;;;;;;25.90;92.80;;;;;;4996865;28;19969;-86
2022/06/29 06:17:53;;;;;;;;;;;25.90;92.60;;;;;;4997140;28;20016;-86
2022/06/29 06:20:20;;;;;;;;;;;25.90;92.50;;;;;;4998048;28;19976;-84
2022/06/29 06:22:47;;;;;;;;;;;25.90;92.70;;;;;;4997992;28;19968;-85
2022/06/29 06:25:13;;;;;;;;;;;25.90;92.30;;;;;;4998012;28;20020;-84
2022/06/29 06:27:41;;;;;;;;;;;25.90;92.20;;;;;;4998130;28;20012;-84
2022/06/29 06:30:09;;;;;;;;;;;25.90;92.10;;;;;;4999861;28;20281;-85
2022/06/29 06:32:36;;;;;;;;;;;25.90;92.00;;;;;;4998133;28;20032;-85
2022/06/29 06:35:03;;;;;;;;;;;25.90;91.90;;;;;;4998625;28;20009;-84
2022/06/29 06:37:29;;;;;;;;;;;25.90;91.80;;;;;;4998140;28;19928;-84
2022/06/29 06:42:41;;;;;;;;;;;25.90;91.70;;;;;;4997753;28;19924;-84
2022/06/29 06:45:09;;;;;;;;;;;25.90;91.60;;;;;;4997607;28;19929;-84
2022/06/29 06:47:36;;;;;;;;;;;25.90;91.50;;;;;;4997480;28;20005;-85
2022/06/29 06:50:02;;;;;;;;;;;25.90;91.40;;;;;;4997022;28;20452;-84
2022/06/29 06:52:30;;;;;;;;;;;25.90;91.40;;;;;;4998186;28;20305;-84
2022/06/29 06:54:56;;;;;;;;;;;25.90;91.30;;;;;;4997799;28;19979;-84
2022/06/29 06:57:23;;;;;;;;;;;25.90;91.50;;;;;;4997448;28;19922;-84
2022/06/29 06:59:53;;;;;;;;;;;25.90;91.20;;;;;;4997500;28;19922;-84
2022/06/29 07:02:21;;;;;;;;;;;25.90;91.10;;;;;;4997576;28;19972;-84
2022/06/29 07:04:47;;;;;;;;;;;25.90;91.00;;;;;;4997236;28;20357;-84
2022/06/29 07:07:14;;;;;;;;;;;25.90;90.90;;;;;;4997252;28;20016;-84
2022/06/29 07:09:41;;;;;;;;;;;25.90;90.90;;;;;;4996838;28;20024;-84
2022/06/29 07:12:08;;;;;;;;;;;25.90;90.80;;;;;;4997085;28;20318;-84
2022/06/29 07:14:35;;;;;;;;;;;25.90;90.70;;;;;;4997078;28;20009;-84
2022/06/29 07:17:01;;;;;;;;;;;25.90;90.70;;;;;;4997267;28;19965;-84
2022/06/29 07:19:29;;;;;;;;;;;25.90;90.60;;;;;;4997662;28;20017;-84
2022/06/29 07:21:56;;;;;;;;;;;25.90;90.50;;;;;;4996617;28;19922;-84
2022/06/29 07:24:23;;;;;;;;;;;25.90;90.50;;;;;;4997332;28;20396;-84
2022/06/29 07:26:49;;;;;;;;;;;25.90;90.50;;;;;;4995704;28;20061;-84
2022/06/29 07:29:16;;;;;;;;;;;25.90;90.50;;;;;;4997013;28;20017;-84
2022/06/29 07:31:43;;;;;;;;;;;25.90;90.50;;;;;;4996516;28;20432;-84
2022/06/29 07:34:09;;;;;;;;;;;25.90;90.50;;;;;;4996405;28;20381;-84
2022/06/29 07:36:37;;;;;;;;;;;25.90;90.50;;;;;;4996255;28;20438;-84
2022/06/29 07:39:04;;;;;;;;;;;25.90;90.40;;;;;;4996546;28;19922;-84
2022/06/29 07:41:31;;;;;;;;;;;25.90;90.30;;;;;;4996677;28;20004;-84
2022/06/29 07:44:07;;;;;;;;;;;25.90;90.30;;;;;;4996422;28;19922;-84
2022/06/29 07:46:34;;;;;;;;;;;25.90;90.20;;;;;;4996785;28;19921;-84
2022/06/29 07:49:01;;;;;;;;;;;26.00;90.20;;;;;;4996358;28;19928;-84
2022/06/29 07:51:27;;;;;;;;;;;26.00;90.10;;;;;;4996635;28;20004;-84
2022/06/29 07:53:56;;;;;;;;;;;26.00;90.10;;;;;;4998488;28;20017;-84
2022/06/29 07:56:22;;;;;;;;;;;26.00;90.00;;;;;;5000587;28;19969;-84
2022/06/29 07:58:49;;;;;;;;;;;26.00;89.90;;;;;;4996618;28;19957;-84
2022/06/29 08:01:15;;;;;;;;;;;26.00;89.80;;;;;;4996578;28;20016;-84
2022/06/29 08:03:42;;;;;;;;;;;26.00;89.70;;;;;;4996206;28;20036;-84
2022/06/29 08:06:10;;;;;;;;;;;26.00;89.60;;;;;;4996344;28;20000;-84
2022/06/29 08:08:36;;;;;;;;;;;25.90;89.30;;;;;;4998754;28;19928;-84
2022/06/29 08:11:06;;;;;;;;;;;26.00;89.20;;;;;;4999933;28;20358;-84
2022/06/29 08:13:33;;;;;;;;;;;26.00;89.10;;;;;;4998973;28;20400;-84
2022/06/29 08:15:59;;;;;;;;;;;25.90;88.80;;;;;;4999044;28;20000;-84
2022/06/29 08:18:26;;;;;;;;;;;26.00;88.80;;;;;;4999181;28;20012;-84
2022/06/29 08:20:53;;;;;;;;;;;25.90;88.60;;;;;;4999810;28;19945;-84
2022/06/29 08:23:20;;;;;;;;;;;26.00;88.50;;;;;;4998639;28;19980;-84
2022/06/29 08:25:46;;;;;;;;;;;25.90;88.30;;;;;;4998767;28;20008;-84
2022/06/29 08:28:14;;;;;;;;;;;26.00;88.20;;;;;;4998196;28;19985;-84
2022/06/29 08:30:41;;;;;;;;;;;25.90;88.00;;;;;;4997174;28;20005;-84
2022/06/29 08:33:08;;;;;;;;;;;25.90;87.80;;;;;;4997827;28;19922;-84
2022/06/29 08:35:35;;;;;;;;;;;26.00;87.80;;;;;;4997611;28;20008;-84
2022/06/29 08:38:02;;;;;;;;;;;26.00;87.60;;;;;;4997532;28;19964;-84
2022/06/29 08:40:32;;;;;;;;;;;25.90;87.40;;;;;;4998282;28;20008;-84
2022/06/29 08:42:59;;;;;;;;;;;25.90;87.30;;;;;;4997215;28;19968;-84
2022/06/29 08:45:27;;;;;;;;;;;25.90;87.10;;;;;;4997307;28;20012;-84
2022/06/29 08:47:54;;;;;;;;;;;26.00;87.10;;;;;;4997260;28;20004;-84
2022/06/29 08:50:21;;;;;;;;;;;25.90;86.90;;;;;;4997357;28;20448;-84
2022/06/29 08:52:48;;;;;;;;;;;26.00;86.90;;;;;;4997067;28;20012;-84
2022/06/29 08:55:15;;;;;;;;;;;26.00;86.70;;;;;;4996895;28;20012;-84
2022/06/29 08:57:42;;;;;;;;;;;26.00;86.50;;;;;;4996419;28;19921;-84
2022/06/29 09:00:10;;;;;;;;;;;26.00;86.50;;;;;;4995903;28;19928;-84
2022/06/29 09:02:38;;;;;;;;;;;25.90;86.20;;;;;;4996215;28;19968;-84
2022/06/29 09:05:05;;;;;;;;;;;25.90;86.00;;;;;;4996291;28;20417;-84
2022/06/29 09:07:32;;;;;;;;;;;25.90;85.90;;;;;;4996506;28;20012;-84
2022/06/29 09:09:59;;;;;;;;;;;25.90;85.70;;;;;;4997093;28;20341;-84
2022/06/29 09:12:26;;;;;;;;;;;25.90;85.60;;;;;;4996182;28;19997;-84
2022/06/29 09:14:53;;;;;;;;;;;25.90;85.60;;;;;;4995831;28;20353;-84
2022/06/29 09:17:21;;;;;;;;;;;26.00;85.60;;;;;;4996285;28;20017;-84
2022/06/29 09:19:50;;;;;;;;;;;25.90;85.60;;;;;;4997212;28;20325;-84
2022/06/29 09:22:17;;;;;;;;;;;26.00;85.60;;;;;;4996727;28;19929;-84
2022/06/29 09:24:43;;;;;;;;;;;26.00;85.60;;;;;;4995899;28;19922;-84
2022/06/29 09:27:11;;;;;;;;;;;26.00;85.60;;;;;;4996770;28;19921;-84
2022/06/29 09:29:39;;;;;;;;;;;26.00;85.60;;;;;;4997013;28;19921;-84
2022/06/29 09:32:07;;;;;;;;;;;26.00;85.60;;;;;;4995506;28;20301;-84
2022/06/29 09:34:34;;;;;;;;;;;26.00;85.50;;;;;;4998690;28;19994;-84
2022/06/29 09:37:03;;;;;;;;;;;26.00;85.30;;;;;;4995200;28;20441;-84
2022/06/29 09:39:33;;;;;;;;;;;26.00;85.20;;;;;;4995314;28;20012;-84
2022/06/29 09:42:00;;;;;;;;;;;26.00;85.10;;;;;;4995062;28;19921;-84
2022/06/29 09:44:26;;;;;;;;;;;26.00;84.90;;;;;;4995750;28;19981;-84
2022/06/29 09:46:55;;;;;;;;;;;26.00;84.80;;;;;;4995568;28;20012;-84
2022/06/29 09:49:24;;;;;;;;;;;26.00;84.70;;;;;;4996347;28;20468;-84
2022/06/29 09:51:52;;;;;;;;;;;26.00;84.60;;;;;;5000996;28;20012;-84
2022/06/29 09:54:21;;;;;;;;;;;26.00;84.50;;;;;;5001358;28;20281;-83
2022/06/29 09:56:48;;;;;;;;;;;26.00;84.40;;;;;;5000663;28;20012;-83
2022/06/29 09:59:20;;;;;;;;;;;26.00;84.30;;;;;;5000701;28;19926;-83
2022/06/29 10:04:31;;;;;;;;;;;26.00;84.20;;;;;;5002686;28;20285;-84
2022/06/29 10:06:58;;;;;;;;;;;26.00;84.10;;;;;;5001227;28;20000;-84
2022/06/29 10:09:26;;;;;;;;;;;26.00;84.00;;;;;;5004287;28;20345;-84
2022/06/29 10:15:01;;;;;;;;;;;26.00;83.80;;;;;;5000584;28;19924;-84
2022/06/29 10:17:33;;;;;;;;;;;26.00;83.70;;;;;;5000459;28;20016;-84
2022/06/29 10:20:07;;;;;;;;;;;26.00;83.70;;;;;;5001660;28;20000;-84
2022/06/29 10:22:34;;;;;;;;;;;26.00;83.60;;;;;;5004663;28;19922;-84
2022/06/29 10:25:04;;;;;;;;;;;26.00;83.50;;;;;;5003160;28;19953;-83
2022/06/29 10:27:31;;;;;;;;;;;26.00;83.40;;;;;;5007295;28;20396;-83
2022/06/29 10:30:16;;;;;;;;;;;26.00;83.30;;;;;;5009137;28;19944;-83
2022/06/29 10:32:43;;;;;;;;;;;26.00;83.30;;;;;;5002785;28;19968;-84
2022/06/29 10:35:10;;;;;;;;;;;26.00;83.20;;;;;;5005025;28;19968;-85
2022/06/29 10:37:47;;;;;;;;;;;26.00;83.10;;;;;;5004731;28;19968;-86
2022/06/29 10:40:20;;;;;;;;;;;26.00;83.00;;;;;;5004753;28;19926;-86
2022/06/29 10:45:44;;;;;;;;;;;26.00;82.90;;;;;;5000721;28;19949;-86
2022/06/29 10:48:20;;;;;;;;;;;26.00;82.80;;;;;;5005077;28;19921;-85
2022/06/29 10:50:47;;;;;;;;;;;26.00;82.80;;;;;;5006225;28;19921;-85
2022/06/29 10:53:15;;;;;;;;;;;26.00;82.80;;;;;;5006823;28;19922;-85
2022/06/29 10:55:44;;;;;;;;;;;26.00;82.80;;;;;;5007388;28;19928;-86
2022/06/29 10:58:12;;;;;;;;;;;26.00;82.80;;;;;;5005797;28;19921;-86
2022/06/29 11:00:40;;;;;;;;;;;26.00;82.80;;;;;;5005613;28;19930;-85
2022/06/29 11:03:08;;;;;;;;;;;26.00;82.80;;;;;;4998480;28;20308;-86
2022/06/29 11:05:35;;;;;;;;;;;26.00;83.00;;;;;;4998207;28;19968;-86
2022/06/29 11:13:32;;;;;;;;;;;26.10;83.80;;;;;;4996214;28;20011;-86
2022/06/29 11:15:59;;;;;;;;;;;26.10;84.10;;;;;;4998167;28;19921;-87
2022/06/29 11:18:28;;;;;;;;;;;26.10;84.30;;;;;;4997862;28;19989;-87
2022/06/29 11:21:02;;;;;;;;;;;26.10;84.50;;;;;;4996626;28;19922;-87
2022/06/29 11:23:29;;;;;;;;;;;26.20;84.70;;;;;;4996511;28;19972;-86
2022/06/29 11:25:57;;;;;;;;;;;26.20;85.00;;;;;;4996275;28;20025;-88
2022/06/29 11:28:26;;;;;;;;;;;26.20;85.20;;;;;;4996496;28;20008;-87
2022/06/29 11:30:59;;;;;;;;;;;26.20;85.40;;;;;;4996684;28;20012;-88
2022/06/29 11:33:27;;;;;;;;;;;26.20;85.70;;;;;;4996461;28;20372;-87
2022/06/29 11:35:54;;;;;;;;;;;26.20;85.80;;;;;;4998590;28;19968;-87
2022/06/29 11:38:21;;;;;;;;;;;26.10;85.70;;;;;;4997888;28;19921;-87
2022/06/29 11:40:51;;;;;;;;;;;26.20;85.80;;;;;;5001762;28;19964;-85
2022/06/29 11:43:20;;;;;;;;;;;26.20;85.80;;;;;;4999946;28;20382;-88
2022/06/29 11:45:48;;;;;;;;;;;26.20;86.30;;;;;;4998599;28;19928;-87
2022/06/29 11:48:15;;;;;;;;;;;26.20;86.60;;;;;;4997760;28;19964;-88
2022/06/29 11:50:46;;;;;;;;;;;26.20;86.70;;;;;;4997373;28;20012;-88
2022/06/29 11:53:13;;;;;;;;;;;26.20;86.90;;;;;;4996642;28;20016;-84
2022/06/29 11:55:40;;;;;;;;;;;26.20;87.00;;;;;;4996340;28;19928;-85
2022/06/29 11:58:09;;;;;;;;;;;26.20;87.20;;;;;;4999699;28;20394;-84
2022/06/29 12:00:39;;;;;;;;;;;26.20;87.30;;;;;;5000215;28;20378;-85
2022/06/29 12:03:06;;;;;;;;;;;26.20;87.40;;;;;;5001682;28;19928;-84
2022/06/29 12:05:32;;;;;;;;;;;26.20;87.60;;;;;;5000194;28;20021;-84
2022/06/29 12:07:59;;;;;;;;;;;26.20;87.70;;;;;;4998107;28;19977;-82
2022/06/29 12:10:26;;;;;;;;;;;26.20;87.90;;;;;;4996410;28;19957;-85
2022/06/29 12:12:52;;;;;;;;;;;26.20;88.00;;;;;;4997834;28;19985;-84
2022/06/29 12:15:19;;;;;;;;;;;26.20;88.20;;;;;;4999451;28;19922;-84
2022/06/29 12:17:47;;;;;;;;;;;26.30;88.40;;;;;;4999523;28;19964;-84
2022/06/29 12:20:14;;;;;;;;;;;26.20;88.40;;;;;;4999181;28;20360;-84
2022/06/29 12:22:40;;;;;;;;;;;26.20;88.60;;;;;;4998914;28;20355;-84
2022/06/29 12:25:07;;;;;;;;;;;26.30;88.90;;;;;;4999537;28;20341;-84
2022/06/29 12:27:36;;;;;;;;;;;26.30;89.00;;;;;;4999294;28;20012;-84
2022/06/29 12:30:04;;;;;;;;;;;26.30;89.20;;;;;;4999010;28;19929;-84
2022/06/29 12:32:30;;;;;;;;;;;26.30;89.30;;;;;;4998598;28;19929;-84
2022/06/29 12:34:58;;;;;;;;;;;26.30;89.50;;;;;;4997957;28;19921;-84
2022/06/29 12:37:25;;;;;;;;;;;26.30;89.70;;;;;;4998474;28;19996;-84
2022/06/29 12:39:52;;;;;;;;;;;26.30;89.80;;;;;;4996516;28;20452;-83
2022/06/29 12:42:19;;;;;;;;;;;26.40;90.00;;;;;;4995167;28;19921;-83
2022/06/29 12:44:45;;;;;;;;;;;26.40;90.10;;;;;;4994929;28;19951;-85
2022/06/29 12:47:12;;;;;;;;;;;26.40;90.10;;;;;;4995404;28;20016;-83
2022/06/29 12:49:39;;;;;;;;;;;26.40;90.10;;;;;;4995715;28;19997;-83
2022/06/29 12:52:07;;;;;;;;;;;26.40;90.10;;;;;;4995301;28;19976;-84
2022/06/29 12:54:33;;;;;;;;;;;26.40;90.20;;;;;;4995452;28;19957;-84
2022/06/29 12:57:00;;;;;;;;;;;26.40;90.10;;;;;;4995740;28;19922;-83
2022/06/29 12:59:27;;;;;;;;;;;26.40;90.10;;;;;;4995153;28;20004;-83
2022/06/29 13:01:53;;;;;;;;;;;26.30;90.10;;;;;;4995389;28;19969;-83
2022/06/29 13:04:20;;;;;;;;;;;26.30;90.10;;;;;;4995074;28;20009;-86
2022/06/29 13:06:47;;;;;;;;;;;26.30;90.10;;;;;;4995479;28;20301;-84
2022/06/29 13:09:15;;;;;;;;;;;26.30;90.10;;;;;;4999261;28;20334;-84
2022/06/29 13:11:42;;;;;;;;;;;26.30;90.10;;;;;;4996518;28;20012;-84
2022/06/29 13:14:08;;;;;;;;;;;26.30;90.00;;;;;;4996891;28;20008;-84
2022/06/29 13:16:35;;;;;;;;;;;26.30;90.00;;;;;;4996917;28;20008;-84
2022/06/29 13:19:02;;;;;;;;;;;26.30;90.20;;;;;;4997138;28;19968;-84
2022/06/29 13:21:28;;;;;;;;;;;26.30;90.00;;;;;;4997018;28;20024;-84
2022/06/29 13:23:55;;;;;;;;;;;26.30;90.00;;;;;;4996872;28;20008;-84
2022/06/29 13:26:23;;;;;;;;;;;26.30;90.00;;;;;;5001214;28;19925;-84
2022/06/29 13:28:50;;;;;;;;;;;26.30;90.00;;;;;;5000390;28;19922;-84
2022/06/29 13:31:17;;;;;;;;;;;26.30;90.00;;;;;;5000662;28;20004;-84
2022/06/29 13:33:43;;;;;;;;;;;26.30;90.00;;;;;;5001240;28;20456;-84
2022/06/29 13:36:11;;;;;;;;;;;26.30;90.00;;;;;;5000889;28;19921;-84
2022/06/29 13:38:38;;;;;;;;;;;26.30;90.00;;;;;;5000898;28;20368;-83
2022/06/29 13:41:05;;;;;;;;;;;26.30;90.00;;;;;;5000175;28;19990;-83
2022/06/29 13:43:33;;;;;;;;;;;26.30;90.00;;;;;;5000445;28;19944;-83
2022/06/29 13:45:59;;;;;;;;;;;26.30;90.00;;;;;;5000112;28;20012;-83
2022/06/29 13:48:28;;;;;;;;;;;26.30;90.00;;;;;;5001226;28;19922;-83
2022/06/29 13:50:54;;;;;;;;;;;26.30;90.00;;;;;;5000926;28;19965;-83
2022/06/29 13:53:21;;;;;;;;;;;26.30;90.00;;;;;;5000920;28;20437;-83
2022/06/29 13:55:48;;;;;;;;;;;26.30;90.00;;;;;;5000895;28;20016;-83
2022/06/29 13:58:15;;;;;;;;;;;26.30;90.00;;;;;;5000820;28;20009;-83
2022/06/29 14:00:43;;;;;;;;;;;26.30;90.00;;;;;;5000318;28;19925;-83
2022/06/29 14:03:10;;;;;;;;;;;26.30;90.00;;;;;;5000832;28;20008;-84
2022/06/29 14:05:36;;;;;;;;;;;26.30;89.90;;;;;;5001321;28;19969;-84
2022/06/29 14:08:03;;;;;;;;;;;26.30;89.90;;;;;;5002329;28;19922;-84
2022/06/29 14:10:30;;;;;;;;;;;26.30;89.90;;;;;;5002081;28;19922;-84
2022/06/29 14:12:57;;;;;;;;;;;26.20;89.70;;;;;;5001574;28;19922;-84
2022/06/29 14:15:24;;;;;;;;;;;26.30;89.90;;;;;;5002978;28;20012;-84
2022/06/29 14:17:52;;;;;;;;;;;26.30;89.80;;;;;;5004897;28;20278;-84
2022/06/29 14:20:18;;;;;;;;;;;26.30;89.80;;;;;;5004847;28;20012;-84
2022/06/29 14:22:45;;;;;;;;;;;26.30;89.80;;;;;;5002513;28;19922;-84
2022/06/29 14:25:12;;;;;;;;;;;26.30;89.70;;;;;;5002888;28;19949;-84
2022/06/29 14:27:39;;;;;;;;;;;26.20;89.60;;;;;;5003112;28;19922;-84
2022/06/29 14:30:06;;;;;;;;;;;26.30;89.70;;;;;;5002077;28;20005;-84
2022/06/29 14:32:32;;;;;;;;;;;26.30;89.60;;;;;;5003155;28;20004;-84
2022/06/29 14:35:00;;;;;;;;;;;26.30;89.50;;;;;;5003306;28;20338;-84
2022/06/29 14:37:27;;;;;;;;;;;26.30;89.50;;;;;;5001794;28;20008;-84